»·PEaware :: SKW791 KPDX-KSFO

SKW791 :: KPDX-KSFO

FLIGHT INFORMATION

Flight Status: Arrived
Operator:
SkyWest Airlines
More flights by this operator :: More flights under this callsign
Pilot: Chase Wakefield (8260)
Aircraft: CANADAIR CL-600 CRJ-200
(CRJ2)
More flights by this aircraft type
Origin: KPDX Portland Intl
United States
Destination: KSFO San Francisco Intl
United States
More flights between these airports :: More routes between these airports
Route: MINNE5 EASON Q1 ETCHY MLBEC BDEGA2
File this flight plan on PilotEdge
Remarks:
Altitude:
(Current/Filed)
29,000ft
Speed:
(Current/Filed)
300kts
Departed: 08-Jan-17 01:12 PM
Arrived: 08-Jan-17 02:41 PM
Distance/Time
Traveled:
478nm/1:29
Distance/Time
To Go:
Arrived

Flight Plot

Page will automatically refresh every two minutes.


Map Options




Map Legend


Flown Route
Filed Route
Departure Airport
Arrival Airport
Navaid (VOR, NDB)
Fix

Horizontal Profiles

Position Reports

Time Latitude Longitude Heading Altitude Ground
Speed
08-Jan-17 12:40 45.586929 -122.593129 41 28ft 0kts
08-Jan-17 12:41 45.586929 -122.593129 41 28ft 0kts
08-Jan-17 12:42 45.586929 -122.593129 41 28ft 0kts
08-Jan-17 12:43 45.586929 -122.593129 41 28ft 0kts
08-Jan-17 12:44 45.586929 -122.593129 41 28ft 0kts
08-Jan-17 12:45 45.586929 -122.593129 41 28ft 0kts
08-Jan-17 12:46 45.586929 -122.593129 41 28ft 0kts
08-Jan-17 12:47 45.586929 -122.593129 41 28ft 0kts
08-Jan-17 12:48 45.586929 -122.593129 41 28ft 0kts
08-Jan-17 12:49 45.586929 -122.593129 41 28ft 0kts
08-Jan-17 12:50 45.586929 -122.593129 41 28ft 0kts
08-Jan-17 12:51 45.586929 -122.593129 41 28ft 0kts
08-Jan-17 12:52 45.586929 -122.593129 41 28ft 0kts
08-Jan-17 12:53 45.586929 -122.593129 41 28ft 0kts
08-Jan-17 12:54 45.586929 -122.593129 41 28ft 0kts
08-Jan-17 12:55 45.586929 -122.593129 41 28ft 0kts
08-Jan-17 12:56 45.586929 -122.593129 41 28ft 0kts
08-Jan-17 12:57 45.586929 -122.593129 41 28ft 0kts
08-Jan-17 12:58 45.586929 -122.593129 41 28ft 0kts
08-Jan-17 12:59 45.586929 -122.593129 41 28ft 0kts
08-Jan-17 13:00 45.586929 -122.593129 41 28ft 0kts
08-Jan-17 13:01 45.586929 -122.593129 41 28ft 0kts
08-Jan-17 13:02 45.586929 -122.593129 41 28ft 0kts
08-Jan-17 13:03 45.586929 -122.593129 41 28ft 0kts
08-Jan-17 13:04 45.586929 -122.593129 41 28ft 0kts
08-Jan-17 13:05 45.586790 -122.593143 268 28ft 0kts
08-Jan-17 13:06 45.586789 -122.593150 267 28ft 0kts
08-Jan-17 13:07 45.586859 -122.594896 299 28ft 17kts
08-Jan-17 13:08 45.589992 -122.603088 282 28ft 20kts
08-Jan-17 13:09 45.591656 -122.607768 299 28ft 9kts
08-Jan-17 13:10 45.593676 -122.612900 296 28ft 25kts
08-Jan-17 13:11 45.596125 -122.620403 236 28ft 5kts
08-Jan-17 13:12 45.586048 -122.598265 120 192ft 183kts
08-Jan-17 13:13 45.570814 -122.518311 95 1461ft 209kts
08-Jan-17 13:14 45.561330 -122.441326 103 3116ft 214kts
08-Jan-17 13:15 45.547070 -122.360255 103 5973ft 216kts
08-Jan-17 13:16 45.499314 -122.321648 172 8328ft 224kts
08-Jan-17 13:17 45.437667 -122.320951 216 10510ft 232kts
08-Jan-17 13:18 45.405223 -122.400389 244 12491ft 239kts
08-Jan-17 13:19 45.377107 -122.486495 245 14316ft 246kts
08-Jan-17 13:20 45.348641 -122.575250 245 15970ft 252kts
08-Jan-17 13:21 45.319685 -122.665666 245 17464ft 258kts
08-Jan-17 13:22 45.289934 -122.759155 245 18837ft 264kts
08-Jan-17 13:23 45.259232 -122.854273 245 20240ft 273kts
08-Jan-17 13:24 45.226606 -122.951619 231 22150ft 278kts
08-Jan-17 13:25 45.157434 -123.000525 200 23762ft 286kts
08-Jan-17 13:26 45.082485 -123.039047 199 25271ft 293kts
08-Jan-17 13:27 45.009479 -123.075752 199 26573ft 299kts
08-Jan-17 13:28 44.935343 -123.112861 199 27756ft 305kts
08-Jan-17 13:29 44.856781 -123.152062 199 28717ft 318kts
08-Jan-17 13:30 44.768724 -123.195878 199 28735ft 361kts
08-Jan-17 13:31 44.669102 -123.245273 199 28733ft 401kts
08-Jan-17 13:32 44.559883 -123.299218 199 28731ft 436kts
08-Jan-17 13:33 44.439020 -123.326866 178 28734ft 461kts
08-Jan-17 13:34 44.309166 -123.321274 178 28726ft 474kts
08-Jan-17 13:35 44.177793 -123.316174 178 28725ft 477kts
08-Jan-17 13:36 44.046719 -123.311117 178 28756ft 477kts
08-Jan-17 13:37 43.914956 -123.306056 178 28777ft 478kts
08-Jan-17 13:38 43.785661 -123.301111 178 28791ft 478kts
08-Jan-17 13:39 43.653854 -123.296093 178 28770ft 478kts
08-Jan-17 13:40 43.522486 -123.291112 178 28743ft 477kts
08-Jan-17 13:41 43.390868 -123.286145 178 28728ft 477kts
08-Jan-17 13:42 43.259162 -123.281195 178 28725ft 477kts
08-Jan-17 13:43 43.127826 -123.276280 178 28725ft 477kts
08-Jan-17 13:44 42.995604 -123.271354 178 28725ft 477kts
08-Jan-17 13:45 42.866314 -123.266557 178 28725ft 477kts
08-Jan-17 13:46 42.734961 -123.261704 178 28725ft 477kts
08-Jan-17 13:47 42.603462 -123.256867 178 28725ft 477kts
08-Jan-17 13:48 42.472427 -123.252067 178 28725ft 477kts
08-Jan-17 13:49 42.341878 -123.247304 178 28725ft 477kts
08-Jan-17 13:50 42.210164 -123.242520 178 28726ft 477kts
08-Jan-17 13:51 42.079175 -123.237781 178 28728ft 477kts
08-Jan-17 13:52 41.947333 -123.233030 178 28731ft 477kts
08-Jan-17 13:53 41.820781 -123.228489 178 28734ft 477kts
08-Jan-17 13:54 41.689848 -123.223810 178 28737ft 477kts
08-Jan-17 13:55 41.557741 -123.219107 178 28740ft 477kts
08-Jan-17 13:56 41.426735 -123.214463 178 28743ft 477kts
08-Jan-17 13:57 41.295328 -123.209824 178 28746ft 477kts
08-Jan-17 13:58 41.163958 -123.205204 178 28749ft 477kts
08-Jan-17 13:59 41.031885 -123.200578 178 28752ft 477kts
08-Jan-17 14:00 40.900452 -123.195994 178 28755ft 477kts
08-Jan-17 14:01 40.773745 -123.191591 178 28758ft 477kts
08-Jan-17 14:02 40.641618 -123.187017 178 28761ft 478kts
08-Jan-17 14:03 40.510188 -123.182486 178 28765ft 478kts
08-Jan-17 14:04 40.378711 -123.177971 178 28768ft 478kts
08-Jan-17 14:05 40.247044 -123.173467 178 28772ft 478kts
08-Jan-17 14:06 40.115049 -123.168969 178 28775ft 478kts
08-Jan-17 14:07 39.983747 -123.164512 178 28775ft 478kts
08-Jan-17 14:08 39.853914 -123.160122 178 28785ft 478kts
08-Jan-17 14:09 39.722541 -123.155696 178 28794ft 478kts
08-Jan-17 14:10 39.590846 -123.151277 178 28800ft 478kts
08-Jan-17 14:11 39.459362 -123.146881 178 28805ft 478kts
08-Jan-17 14:12 39.328074 -123.142508 178 28809ft 478kts
08-Jan-17 14:13 39.196655 -123.138148 178 28812ft 478kts
08-Jan-17 14:14 39.067101 -123.116590 151 28767ft 477kts
08-Jan-17 14:15 38.956665 -123.025362 147 28773ft 477kts
08-Jan-17 14:16 38.843573 -122.948427 169 27970ft 453kts
08-Jan-17 14:17 38.729857 -122.916036 166 26345ft 425kts
08-Jan-17 14:18 38.618730 -122.883260 166 24550ft 406kts
08-Jan-17 14:19 38.512036 -122.851846 166 22764ft 393kts
08-Jan-17 14:20 38.407774 -122.821212 166 20971ft 383kts
08-Jan-17 14:21 38.306339 -122.791494 166 19188ft 372kts
08-Jan-17 14:22 38.208509 -122.762928 166 17376ft 353kts
08-Jan-17 14:23 38.115072 -122.735771 166 15762ft 349kts
08-Jan-17 14:24 38.022552 -122.708955 166 15726ft 342kts
08-Jan-17 14:25 37.928026 -122.681627 166 16043ft 354kts
08-Jan-17 14:26 37.843635 -122.614400 139 15851ft 394kts
08-Jan-17 14:27 37.782611 -122.502997 92 14931ft 391kts
08-Jan-17 14:28 37.825028 -122.393342 52 13431ft 339kts
08-Jan-17 14:29 37.880208 -122.312100 43 11996ft 311kts
08-Jan-17 14:30 37.940523 -122.240039 43 10496ft 293kts
08-Jan-17 14:31 37.995474 -122.168710 66 8924ft 283kts
08-Jan-17 14:32 37.978987 -122.076719 113 7367ft 276kts
08-Jan-17 14:33 37.920152 -122.041115 208 5805ft 270kts
08-Jan-17 14:34 37.873818 -122.112211 233 5063ft 266kts
08-Jan-17 14:35 37.831070 -122.184813 233 5062ft 257kts
08-Jan-17 14:36 37.789342 -122.255653 233 4278ft 238kts
08-Jan-17 14:37 37.738814 -122.293233 207 3202ft 191kts
08-Jan-17 14:38 37.695643 -122.321790 207 2767ft 170kts
08-Jan-17 14:39 37.657320 -122.346568 209 1089ft 143kts
08-Jan-17 14:40 37.622327 -122.370396 208 23ft 128kts
08-Jan-17 14:41 37.612943 -122.378456 316 18ft 0kts
08-Jan-17 14:42 37.613445 -122.379493 296 18ft 16kts
08-Jan-17 14:43 37.615494 -122.382067 224 18ft 0kts

Navigation Log

Ident Type
1. KPDX Airport
2. EASON Fix
3. EBINY Fix
4. ENVIE Fix
5. ETCHY Fix
6. KSFO Airport